Time;durP1;ratioP1;P1;durP2;ratioP2;P2;SDS_P1;SDS_P2;PMS_P1;PMS_P2;Temp;Humidity;BMP_temperature;BMP_pressure;BME280_temperature;BME280_humidity;BME280_pressure;Samples;Min_cycle;Max_cycle;Signal;HPM_P1;HPM_P2
2022/11/18 05:21:23;;;;;;;207.52;52.72;;;;;;;6.24;100.00;98786.44;6712551;26;178598;-89
2022/11/18 05:28:11;;;;;;;164.37;44.83;;;;;;;5.75;100.00;98804.03;6700928;26;20066;-91
2022/11/18 05:38:37;;;;;;;170.45;43.55;;;;;;;5.95;100.00;98795.03;6711690;26;20034;-90
2022/11/18 05:45:02;;;;;;;143.73;39.90;;;;;;;5.98;100.00;98794.84;6694755;26;33867;-90
2022/11/18 05:48:07;;;;;;;167.95;43.80;;;;;;;5.94;100.00;98796.78;6692806;26;34036;-89
2022/11/18 05:51:09;;;;;;;145.15;42.53;;;;;;;5.93;100.00;98787.22;6680380;26;32734;-89
2022/11/18 05:54:14;;;;;;;152.20;42.78;;;;;;;5.87;100.00;98777.03;6696775;26;34889;-88
2022/11/18 05:57:18;;;;;;;141.62;40.75;;;;;;;5.97;100.00;98793.16;6697468;26;33891;-88
2022/11/18 06:00:21;;;;;;;121.03;40.12;;;;;;;5.98;100.00;98794.84;6703891;26;33811;-89
2022/11/18 06:03:26;;;;;;;135.52;39.45;;;;;;;6.04;100.00;98797.16;6705539;26;34311;-89
2022/11/18 06:10:35;;;;;;;110.93;32.05;;;;;;;5.92;100.00;98780.25;6617262;26;20127;-89
2022/11/18 06:13:48;;;;;;;93.07;32.63;;;;;;;6.02;100.00;98787.63;6594561;26;32862;-89
2022/11/18 06:16:58;;;;;;;85.62;30.95;;;;;;;6.10;100.00;98795.13;6612651;26;33759;-89
2022/11/18 06:27:32;;;;;;;81.50;29.37;;;;;;;6.09;100.00;98803.97;6610577;26;20354;-89
2022/11/18 06:30:35;;;;;;;83.78;30.17;;;;;;;6.15;100.00;98793.06;6618986;26;34644;-89
2022/11/18 06:33:38;;;;;;;92.53;30.23;;;;;;;6.15;100.00;98791.31;6641159;26;33936;-88
2022/11/18 06:36:41;;;;;;;85.75;30.35;;;;;;;6.21;100.00;98798.00;6645391;26;34393;-87
2022/11/18 06:39:43;;;;;;;83.15;31.65;;;;;;;6.17;100.00;98794.69;6646761;26;34344;-87
2022/11/18 06:49:31;;;;;;;88.93;30.40;;;;;;;6.27;100.00;98783.63;6634929;26;33695;-87
2022/11/18 06:52:34;;;;;;;78.60;30.12;;;;;;;6.24;100.00;98789.91;6642194;26;35097;-89
2022/11/18 06:55:37;;;;;;;79.53;28.48;;;;;;;6.23;100.00;98790.84;6640823;26;34278;-88
2022/11/18 06:58:40;;;;;;;79.97;29.42;;;;;;;6.28;100.00;98790.59;6641342;26;34011;-89
2022/11/18 07:01:42;;;;;;;73.15;27.87;;;;;;;6.31;100.00;98793.91;6637224;26;32709;-88
2022/11/18 07:04:45;;;;;;;77.68;27.67;;;;;;;6.37;100.00;98799.72;6638054;26;33925;-89
2022/11/18 07:19:37;;;;;;;59.22;25.23;;;;;;;6.44;100.00;98793.19;6639707;26;20066;-90
2022/11/18 07:22:43;;;;;;;52.50;24.00;;;;;;;6.39;100.00;98792.62;6659852;26;34156;-89
2022/11/18 07:25:47;;;;;;;61.45;27.10;;;;;;;6.48;100.00;98794.69;6668607;26;33650;-89
2022/11/18 07:43:50;;;;;;;60.10;27.27;;;;;;;6.55;100.00;98771.50;6685832;26;20662;-90
2022/11/18 11:35:54;;;;;;;26.70;15.32;;;;;;;6.37;100.00;98637.31;6690421;26;20039;-89
2022/11/18 11:39:34;;;;;;;25.75;15.63;;;;;;;6.40;100.00;98633.62;6704619;26;35060;-88
2022/11/18 11:43:01;;;;;;;31.20;16.25;;;;;;;6.27;100.00;98630.88;6706886;26;34141;-88
2022/11/18 11:46:30;;;;;;;26.17;15.20;;;;;;;6.20;100.00;98633.88;6680255;26;32546;-88
2022/11/18 11:49:56;;;;;;;26.45;14.73;;;;;;;6.07;100.00;98635.56;6695486;26;34081;-88
2022/11/18 11:53:19;;;;;;;27.15;14.30;;;;;;;5.91;100.00;98636.44;6655557;26;34134;-88
2022/11/18 11:56:37;;;;;;;27.42;14.50;;;;;;;5.88;100.00;98631.34;6679591;26;32507;-89
2022/11/18 12:00:12;;;;;;;25.48;14.48;;;;;;;5.80;100.00;98639.66;6695924;26;34488;-88
2022/11/18 12:03:41;;;;;;;25.27;14.27;;;;;;;5.80;100.00;98634.41;6697589;26;33858;-88
2022/11/18 12:06:54;;;;;;;25.27;14.07;;;;;;;5.74;100.00;98624.25;6687606;26;33742;-88
2022/11/18 12:10:16;;;;;;;24.92;13.45;;;;;;;5.77;100.00;98626.72;6693018;26;34496;-88
2022/11/18 12:13:57;;;;;;;24.12;13.62;;;;;;;5.86;100.00;98629.72;6669413;26;33128;-89
2022/11/18 12:17:17;;;;;;;28.23;14.13;;;;;;;5.74;100.00;98620.78;6690583;26;34728;-88
2022/11/18 12:20:36;;;;;;;23.23;13.13;;;;;;;5.76;100.00;98608.38;6689812;26;35114;-90
2022/11/18 12:23:39;;;;;;;23.35;13.57;;;;;;;5.68;100.00;98619.34;6689258;26;34358;-89
2022/11/18 12:26:43;;;;;;;22.33;12.82;;;;;;;5.73;100.00;98611.19;6690506;26;34402;-89
2022/11/18 12:29:49;;;;;;;20.92;12.48;;;;;;;5.69;100.00;98610.53;6691290;26;34270;-87
2022/11/18 12:32:55;;;;;;;20.67;12.02;;;;;;;5.61;100.00;98603.06;6670187;26;32989;-87
2022/11/18 12:35:58;;;;;;;21.62;11.80;;;;;;;5.58;100.00;98597.97;6691525;26;34002;-87
2022/11/18 14:13:58;;;;;;;27.33;15.50;;;;;;;5.46;100.00;98631.09;6691237;26;34232;-87
2022/11/18 14:17:13;;;;;;;28.95;15.40;;;;;;;5.48;100.00;98629.22;6665910;26;33869;-89
2022/11/18 14:20:17;;;;;;;29.67;16.15;;;;;;;5.48;100.00;98621.31;6669259;26;33168;-88
2022/11/18 14:23:27;;;;;;;29.85;16.20;;;;;;;5.50;100.00;98634.41;6691323;26;34120;-89
2022/11/18 14:26:36;;;;;;;28.87;16.90;;;;;;;5.56;100.00;98638.44;6691590;26;34418;-89
2022/11/18 14:29:48;;;;;;;30.27;15.90;;;;;;;5.55;100.00;98639.38;6703110;26;33796;-89
2022/11/18 14:33:19;;;;;;;30.77;16.75;;;;;;;5.56;100.00;98633.19;6692335;26;34229;-89
2022/11/18 14:36:22;;;;;;;29.27;16.05;;;;;;;5.62;100.00;98640.72;6672435;26;32831;-88
2022/11/18 14:39:30;;;;;;;28.83;17.10;;;;;;;5.60;100.00;98642.63;6694958;26;33620;-89
2022/11/18 14:42:33;;;;;;;29.83;16.00;;;;;;;5.52;100.00;98651.78;6678101;26;32785;-89
2022/11/18 14:45:37;;;;;;;28.92;16.98;;;;;;;5.56;100.00;98639.31;6705364;26;34323;-90
2022/11/18 14:48:39;;;;;;;32.33;17.50;;;;;;;5.59;100.00;98638.28;6709021;26;35400;-90
2022/11/18 14:51:43;;;;;;;27.77;16.25;;;;;;;5.60;100.00;98639.97;6708831;26;34923;-90
2022/11/18 14:54:46;;;;;;;28.35;16.67;;;;;;;5.62;100.00;98644.22;6676901;26;33011;-90
2022/11/18 14:57:49;;;;;;;31.58;17.62;;;;;;;5.66;100.00;98642.25;6669795;26;33431;-90
2022/11/18 15:00:51;;;;;;;35.25;18.15;;;;;;;5.63;100.00;98635.38;6671255;26;32608;-90
2022/11/18 15:03:54;;;;;;;28.10;17.02;;;;;;;5.64;100.00;98637.09;6690868;26;34029;-90
2022/11/18 15:06:57;;;;;;;28.23;16.92;;;;;;;5.67;100.00;98630.78;6691375;26;34028;-90
2022/11/18 15:10:00;;;;;;;28.30;16.73;;;;;;;5.73;100.00;98625.19;6682713;26;33389;-90
2022/11/18 15:13:02;;;;;;;31.83;17.40;;;;;;;5.71;100.00;98621.81;6683911;26;34301;-90
2022/11/18 15:16:12;;;;;;;31.25;16.73;;;;;;;5.66;100.00;98622.06;6691837;26;34309;-91
2022/11/18 15:19:16;;;;;;;30.65;17.15;;;;;;;5.69;100.00;98630.72;6654720;26;32854;-89
2022/11/18 15:33:51;;;;;;;35.38;18.85;;;;;;;5.67;100.00;98630.78;6660908;26;20042;-90
2022/11/18 15:36:55;;;;;;;33.78;18.70;;;;;;;5.68;100.00;98637.75;6697275;26;34170;-90
2022/11/18 15:39:59;;;;;;;33.70;19.08;;;;;;;5.68;100.00;98636.91;6690700;26;34013;-91
2022/11/18 15:43:01;;;;;;;34.67;18.02;;;;;;;5.79;100.00;98632.72;6673448;26;33638;-90
2022/11/18 15:46:04;;;;;;;38.35;18.98;;;;;;;5.76;100.00;98638.19;6676601;26;33398;-90
2022/11/18 15:49:12;;;;;;;35.83;19.80;;;;;;;5.74;100.00;98642.66;6677888;26;33761;-92
2022/11/18 15:59:38;;;;;;;43.28;19.95;;;;;;;5.80;100.00;98658.09;6684401;26;20062;-91
